Legend — WDH2751 — position and weather

sailwx.info

Track history (hours):
 
Tides and Currents Weather Stations Pressure Air Temp Water Temp Dewpoint Dewpoint Depression Visibility Wind Speed Wind Dir Waves Ship Positions

Legend

Owner: Sea Adventure 80 Sportfishing, Encinitas, CA. More information available from US FCC via Universal Licensing System and Coast Guard Vessel Documentation Center.

Last reported at 2018-Jun-18 18:22 UTC. Time now 2018-Jun-21 04:53 UTC.
Position N 32°48' W 117°18'.

Type: Passenger vessel. MMSI: 367600830.

Date/timePositionNaut miles runAvg speedWind from/ knotsBaromVisibWave heightAir tempDewpointWater temp
2018-Jun-18 18:22N 32°48' W 117°18'2 4.7
2018-Jun-18 18:00N 32°50' W 117°18'1 1.6
2018-Jun-18 17:30N 32°51' W 117°18'1 2.8
2018-Jun-18 17:00N 32°52' W 117°19'2 3.0
2018-Jun-18 16:30N 32°51' W 117°18'1 2.4
2018-Jun-18 15:59N 32°50' W 117°19'1 2.3
2018-Jun-18 15:30N 32°49' W 117°19'  
2018-Jun-13 14:44N 32°36' W 117°14'2 8.6
2018-Jun-13 14:30N 32°38' W 117°14'  
2018-Jun-09 21:06N 32°45' W 117°19'1 9.4
2018-Jun-09 21:00N 32°46' W 117°19'2 4.1
2018-Jun-09 20:30N 32°48' W 117°20'3 6.8
2018-Jun-09 20:00N 32°50' W 117°18'0 1.0
2018-Jun-09 19:30N 32°50' W 117°18'0 0.3
2018-Jun-09 19:00N 32°51' W 117°18'1 2.5
2018-Jun-09 18:30N 32°50' W 117°19'0 0.1
2018-Jun-09 18:00N 32°50' W 117°19'1 1.4
2018-Jun-09 17:30N 32°51' W 117°20'1 1.2
2018-Jun-09 17:00N 32°51' W 117°20'1 1.2
2018-Jun-09 16:30N 32°52' W 117°19'0 0.3
2018-Jun-09 16:00N 32°52' W 117°19'2 4.1
2018-Jun-09 15:30N 32°50' W 117°19'  
Track history (hours):
 
Tides and Currents Weather Stations Pressure Air Temp Water Temp Dewpoint Dewpoint Depression Visibility Wind Speed Wind Dir Waves Ship Positions

Legend

Owner: Sea Adventure 80 Sportfishing, Encinitas, CA. More information available from US FCC via Universal Licensing System and Coast Guard Vessel Documentation Center.

Last reported at 2018-Jun-18 18:22 UTC. Time now 2018-Jun-21 04:53 UTC.
Position N 32°48' W 117°18'.

Type: Passenger vessel. MMSI: 367600830.

Date/timePositionNaut miles runAvg speedWind from/ knotsBaromVisibWave heightAir tempDewpointWater temp
2018-Jun-18 18:22N 32°48' W 117°18'2 4.7
2018-Jun-18 18:00N 32°50' W 117°18'1 1.6
2018-Jun-18 17:30N 32°51' W 117°18'1 2.8
2018-Jun-18 17:00N 32°52' W 117°19'2 3.0
2018-Jun-18 16:30N 32°51' W 117°18'1 2.4
2018-Jun-18 15:59N 32°50' W 117°19'1 2.3
2018-Jun-18 15:30N 32°49' W 117°19'  
2018-Jun-13 14:44N 32°36' W 117°14'2 8.6
2018-Jun-13 14:30N 32°38' W 117°14'  
2018-Jun-09 21:06N 32°45' W 117°19'1 9.4
2018-Jun-09 21:00N 32°46' W 117°19'2 4.1
2018-Jun-09 20:30N 32°48' W 117°20'3 6.8
2018-Jun-09 20:00N 32°50' W 117°18'0 1.0
2018-Jun-09 19:30N 32°50' W 117°18'0 0.3
2018-Jun-09 19:00N 32°51' W 117°18'1 2.5
2018-Jun-09 18:30N 32°50' W 117°19'0 0.1
2018-Jun-09 18:00N 32°50' W 117°19'1 1.4
2018-Jun-09 17:30N 32°51' W 117°20'1 1.2
2018-Jun-09 17:00N 32°51' W 117°20'1 1.2
2018-Jun-09 16:30N 32°52' W 117°19'0 0.3
2018-Jun-09 16:00N 32°52' W 117°19'2 4.1
2018-Jun-09 15:30N 32°50' W 117°19'  

Dump ship's entire track history